Time;durP1;ratioP1;P1;durP2;ratioP2;P2;SDS_P1;SDS_P2;PMS_P1;PMS_P2;Temp;Humidity;BMP_temperature;BMP_pressure;BME280_temperature;BME280_humidity;BME280_pressure;Samples;Min_cycle;Max_cycle;Signal;HPM_P1;HPM_P2
2021/12/01 00:00:23;;;;;;;4.75;4.10;;;;;;;5.23;58.56;101119.41;5010995;28;20132;-83
2021/12/01 00:02:55;;;;;;;5.95;3.92;;;;;;;4.74;58.83;101011.75;5010359;28;20400;-82
2021/12/01 00:05:24;;;;;;;5.57;4.10;;;;;;;5.41;58.65;101111.38;5011741;28;20054;-81
2021/12/01 00:07:52;;;;;;;5.25;3.70;;;;;;;5.48;58.42;101131.13;5010071;28;20562;-82
2021/12/01 00:10:21;;;;;;;6.20;3.92;;;;;;;5.08;58.28;101070.31;5025896;28;20208;-83
2021/12/01 00:12:48;;;;;;;4.28;3.75;;;;;;;5.29;58.17;101112.94;5011170;28;20151;-82
2021/12/01 00:15:15;;;;;;;6.43;4.35;;;;;;;5.43;57.23;101125.28;5025197;28;20050;-83
2021/12/01 00:17:41;;;;;;;4.57;4.18;;;;;;;5.35;58.01;101102.88;5025642;28;20484;-81
2021/12/01 00:20:11;;;;;;;4.50;3.63;;;;;;;5.26;57.79;101069.19;5025600;28;20049;-82
2021/12/01 00:22:38;;;;;;;4.18;3.58;;;;;;;5.16;57.08;101049.63;5009569;28;20049;-83
2021/12/01 00:25:06;;;;;;;7.47;4.20;;;;;;;5.04;56.62;101030.16;5008802;28;20479;-82
2021/12/01 00:27:33;;;;;;;6.60;3.75;;;;;;;5.25;57.33;101072.78;5008801;28;20839;-83
2021/12/01 00:30:00;;;;;;;3.87;3.20;;;;;;;5.04;57.23;101035.41;5008719;28;20410;-83
2021/12/01 00:32:28;;;;;;;5.65;3.67;;;;;;;5.32;59.14;101082.03;5010289;28;20500;-82
2021/12/01 00:34:58;;;;;;;3.75;3.10;;;;;;;5.00;58.20;101022.53;5008970;28;20496;-82
2021/12/01 00:37:25;;;;;;;7.78;3.92;;;;;;;5.22;59.49;101059.81;5008471;28;20057;-82
2021/12/01 00:39:51;;;;;;;5.10;3.53;;;;;;;5.16;58.69;101070.69;5008653;28;20132;-83
2021/12/01 00:42:19;;;;;;;5.07;2.90;;;;;;;4.93;57.95;101028.16;5008530;28;20064;-81
2021/12/01 00:44:53;;;;;;;5.75;3.50;;;;;;;5.14;58.51;101069.94;5009025;28;20077;-84
2021/12/01 00:47:22;;;;;;;4.75;3.38;;;;;;;5.08;58.52;101054.50;5008678;28;20538;-82
2021/12/01 00:49:49;;;;;;;5.72;3.25;;;;;;;5.32;59.24;101097.81;5008587;28;20100;-81
2021/12/01 00:52:16;;;;;;;3.95;3.30;;;;;;;5.16;57.74;101070.69;5008338;28;20494;-82
2021/12/01 00:54:42;;;;;;;5.37;3.43;;;;;;;4.63;57.17;100985.22;5008784;28;20089;-82
2021/12/01 00:57:09;;;;;;;3.58;3.25;;;;;;;5.09;58.88;101054.41;5008669;28;20057;-82
2021/12/01 00:59:36;;;;;;;3.90;3.28;;;;;;;4.04;59.15;100888.69;5008764;28;20089;-81
2021/12/01 01:02:03;;;;;;;4.00;2.87;;;;;;;4.90;59.93;101053.78;5008118;28;20145;-81
2021/12/01 01:04:29;;;;;;;6.22;3.33;;;;;;;4.56;59.51;101002.28;5008446;28;20081;-85
2021/12/01 01:06:56;;;;;;;5.40;3.20;;;;;;;5.11;58.47;101081.50;5008844;28;20053;-85
2021/12/01 01:09:30;;;;;;;4.37;3.00;;;;;;;5.20;59.51;101079.28;5008562;28;20141;-82
2021/12/01 01:17:36;;;;;;;4.50;3.17;;;;;;;4.26;60.09;100940.00;5009639;28;20100;-83
2021/12/01 01:20:06;;;;;;;3.30;2.87;;;;;;;5.00;59.96;101062.88;5008230;28;20057;-82
2021/12/01 01:22:34;;;;;;;3.80;3.40;;;;;;;5.01;60.18;101066.34;5008411;28;20113;-83
2021/12/01 01:25:00;;;;;;;3.33;3.03;;;;;;;4.90;60.16;101049.41;5008363;28;20050;-83
2021/12/01 01:27:28;;;;;;;3.78;3.05;;;;;;;5.00;61.52;101070.75;5024917;28;20595;-81
2021/12/01 01:29:56;;;;;;;5.00;3.00;;;;;;;4.91;59.95;101061.59;5009810;28;20056;-81
2021/12/01 01:32:26;;;;;;;4.75;3.28;;;;;;;5.15;61.24;101087.44;5011409;28;20071;-82
2021/12/01 01:34:53;;;;;;;4.03;2.50;;;;;;;5.17;58.73;101077.66;5011425;28;20123;-82
2021/12/01 01:37:19;;;;;;;8.40;3.40;;;;;;;5.45;58.21;101076.03;5009278;28;20468;-84
2021/12/01 01:39:46;;;;;;;4.80;3.30;;;;;;;5.56;57.85;101063.06;5008230;28;20372;-81
2021/12/01 01:42:13;;;;;;;7.37;3.30;;;;;;;5.56;58.56;101069.19;5024388;28;20157;-83
2021/12/01 01:44:39;;;;;;;7.15;3.20;;;;;;;5.45;58.49;101083.91;5024198;28;20081;-82
2021/12/01 01:47:06;;;;;;;3.90;3.27;;;;;;;5.38;58.64;101064.16;5024438;28;20046;-82
2021/12/01 01:49:46;;;;;;;5.17;3.40;;;;;;;5.38;58.76;101037.81;5007395;28;20145;-82
2021/12/01 01:52:13;;;;;;;5.90;3.35;;;;;;;5.41;57.96;101050.81;5007930;28;20105;-83
2021/12/01 01:54:39;;;;;;;5.13;2.97;;;;;;;5.41;59.40;101059.53;5008388;28;20089;-84
2021/12/01 01:57:06;;;;;;;3.30;3.00;;;;;;;4.67;60.57;100965.69;5008503;28;20081;-82
2021/12/01 01:59:33;;;;;;;5.30;3.67;;;;;;;5.13;60.48;101041.94;5008263;28;20542;-81
2021/12/01 02:02:01;;;;;;;6.07;3.33;;;;;;;5.26;60.89;101058.66;5008723;28;20053;-84
2021/12/01 02:04:32;;;;;;;5.30;3.00;;;;;;;4.94;59.16;100989.53;5008859;28;20053;-81
2021/12/01 02:07:01;;;;;;;5.77;2.77;;;;;;;5.07;59.88;100994.91;5008412;28;20078;-82
2021/12/01 02:09:29;;;;;;;3.53;3.10;;;;;;;5.32;60.24;101039.91;5008391;28;20412;-81
2021/12/01 02:11:59;;;;;;;3.20;2.90;;;;;;;4.99;60.46;100997.16;5009433;28;20120;-82
2021/12/01 02:14:27;;;;;;;7.67;3.30;;;;;;;5.22;60.62;101041.38;5008499;28;20058;-82
2021/12/01 02:16:55;;;;;;;3.10;2.80;;;;;;;5.35;59.76;101030.97;5009463;28;20057;-82
2021/12/01 02:19:22;;;;;;;4.57;3.33;;;;;;;5.23;60.45;101011.47;5009765;28;20108;-82
2021/12/01 02:21:50;;;;;;;3.80;3.17;;;;;;;4.87;60.94;100952.22;5007735;28;20060;-82
2021/12/01 02:24:20;;;;;;;7.35;2.88;;;;;;;5.41;59.30;101027.94;5007035;28;20135;-82
2021/12/01 02:26:51;;;;;;;6.20;3.50;;;;;;;3.61;61.09;100741.44;5008306;28;20098;-82
2021/12/01 02:29:21;;;;;;;3.35;2.50;;;;;;;5.21;59.30;100994.94;5008215;28;20049;-82
2021/12/01 02:31:49;;;;;;;3.20;2.88;;;;;;;5.44;60.01;101011.97;5007478;28;20079;-82
2021/12/01 02:34:19;;;;;;;3.45;3.15;;;;;;;4.56;61.06;100881.31;5008395;28;20046;-82
2021/12/01 02:36:53;;;;;;;4.95;2.80;;;;;;;5.29;60.60;101010.25;5007386;28;20140;-82
2021/12/01 02:39:20;;;;;;;3.60;2.38;;;;;;;5.15;61.99;101005.84;5007026;28;20559;-82
2021/12/01 02:41:55;;;;;;;3.63;2.88;;;;;;;4.96;60.93;100978.94;5006615;28;20054;-81
2021/12/01 02:44:23;;;;;;;5.80;2.77;;;;;;;4.44;62.25;100890.78;5006954;28;20050;-83
2021/12/01 02:46:50;;;;;;;4.10;2.53;;;;;;;5.14;60.95;101004.13;5006957;28;20380;-82
2021/12/01 02:49:24;;;;;;;4.53;2.97;;;;;;;4.96;62.25;101002.59;5008276;28;20411;-83
2021/12/01 02:51:56;;;;;;;4.13;2.90;;;;;;;4.79;61.86;100966.78;5007031;28;20242;-82
2021/12/01 02:54:25;;;;;;;3.33;2.50;;;;;;;4.62;62.19;100970.38;5007149;28;20050;-82
2021/12/01 02:56:53;;;;;;;3.33;2.50;;;;;;;4.84;62.44;100991.03;5008138;28;20089;-82
2021/12/01 02:59:21;;;;;;;5.80;2.95;;;;;;;4.74;62.59;100977.56;5007017;28;20157;-81
2021/12/01 03:01:48;;;;;;;6.57;3.03;;;;;;;4.86;61.35;100990.00;5008958;28;20093;-83
2021/12/01 03:04:15;;;;;;;9.17;2.87;;;;;;;4.27;61.90;100902.28;5011055;28;20050;-81
2021/12/01 03:06:44;;;;;;;6.72;3.13;;;;;;;3.90;61.50;100815.06;5010815;28;20076;-82
2021/12/01 03:09:13;;;;;;;8.07;2.97;;;;;;;5.02;62.42;100995.19;5011999;28;20501;-82
2021/12/01 03:11:42;;;;;;;4.32;2.65;;;;;;;4.70;61.02;100911.13;5010767;28;20050;-82
2021/12/01 03:14:11;;;;;;;4.80;2.47;;;;;;;4.85;62.99;100940.94;5010439;28;20145;-85
2021/12/01 03:16:40;;;;;;;6.07;3.03;;;;;;;5.06;62.01;100980.91;5010657;28;20104;-82
2021/12/01 03:19:07;;;;;;;7.57;3.07;;;;;;;5.02;61.01;100978.53;5013587;28;20129;-81
2021/12/01 03:21:38;;;;;;;3.60;2.47;;;;;;;4.96;62.24;100973.66;5014851;28;20270;-81
2021/12/01 03:24:05;;;;;;;4.13;2.63;;;;;;;4.85;62.30;100940.94;5011346;28;20129;-82
2021/12/01 03:26:33;;;;;;;5.63;2.60;;;;;;;4.71;62.52;100917.25;5011549;28;20085;-81
2021/12/01 03:29:02;;;;;;;7.43;2.67;;;;;;;4.75;61.99;100931.91;5011761;28;20057;-83
2021/12/01 03:31:29;;;;;;;6.23;3.17;;;;;;;4.90;61.62;100938.91;5010671;28;20042;-82
2021/12/01 03:33:55;;;;;;;6.17;2.90;;;;;;;5.19;61.16;100962.59;5027068;28;20058;-82
2021/12/01 03:36:22;;;;;;;4.37;2.93;;;;;;;5.35;60.56;100979.16;5012016;28;20053;-82
2021/12/01 03:38:49;;;;;;;4.97;2.80;;;;;;;5.00;60.67;100891.81;5026806;28;20104;-81
2021/12/01 03:41:15;;;;;;;4.33;2.90;;;;;;;4.25;60.94;100793.78;5010055;28;20081;-82
2021/12/01 03:43:42;;;;;;;4.80;2.67;;;;;;;4.98;61.98;100913.91;5010122;28;20163;-81
2021/12/01 03:46:09;;;;;;;4.40;2.63;;;;;;;4.91;61.71;100918.69;5010045;28;20085;-81
2021/12/01 03:48:35;;;;;;;6.43;2.87;;;;;;;5.17;61.42;100950.47;5009948;28;20061;-82
2021/12/01 03:51:02;;;;;;;5.00;2.70;;;;;;;4.92;62.31;100928.25;5009703;28;20160;-82
2021/12/01 03:53:29;;;;;;;4.33;3.00;;;;;;;4.92;62.28;100939.63;5010123;28;20132;-81
2021/12/01 03:55:56;;;;;;;3.15;2.83;;;;;;;4.97;62.21;100943.78;5025888;28;20050;-81
2021/12/01 03:58:22;;;;;;;2.67;2.47;;;;;;;4.96;62.07;100950.81;5026419;28;20052;-81
2021/12/01 04:00:49;;;;;;;5.77;2.70;;;;;;;4.95;61.96;100941.22;5009785;28;20080;-83
2021/12/01 04:03:16;;;;;;;4.93;2.50;;;;;;;5.11;62.50;100962.22;5009670;28;20144;-82
2021/12/01 04:05:43;;;;;;;3.37;2.47;;;;;;;5.14;62.61;100962.03;5011373;28;20093;-81
2021/12/01 04:08:10;;;;;;;3.33;2.47;;;;;;;4.88;63.15;100956.56;5010283;28;20128;-81
2021/12/01 04:10:37;;;;;;;6.60;2.67;;;;;;;4.89;62.63;100952.97;5026490;28;20077;-82
2021/12/01 04:13:04;;;;;;;3.43;2.17;;;;;;;4.96;62.88;100969.25;5025852;28;20077;-82
2021/12/01 04:15:30;;;;;;;3.27;2.30;;;;;;;5.00;62.72;100975.16;5010306;28;20092;-83
2021/12/01 04:17:57;;;;;;;5.90;3.00;;;;;;;5.20;62.46;100974.81;5010231;28;20396;-82
2021/12/01 04:20:25;;;;;;;4.77;3.37;;;;;;;5.22;63.23;100974.72;5026816;28;20551;-82
2021/12/01 04:22:53;;;;;;;5.13;2.77;;;;;;;4.93;63.40;100933.44;5010098;28;20045;-82
2021/12/01 04:25:19;;;;;;;4.43;3.03;;;;;;;5.18;63.50;100976.69;5010717;28;20362;-82
2021/12/01 04:27:46;;;;;;;6.77;3.33;;;;;;;4.90;62.74;100914.34;5010652;28;20351;-81
2021/12/01 04:30:15;;;;;;;4.30;2.80;;;;;;;5.27;62.33;100962.97;5009931;28;20133;-82
2021/12/01 04:32:42;;;;;;;4.93;2.80;;;;;;;4.99;63.06;100944.53;5010040;28;20165;-83
2021/12/01 04:35:09;;;;;;;12.00;3.17;;;;;;;5.14;63.33;100964.66;5010679;28;20050;-83
2021/12/01 04:37:36;;;;;;;4.32;2.67;;;;;;;5.26;62.58;100969.16;5008748;28;20058;-83
2021/12/01 04:40:05;;;;;;;4.57;2.40;;;;;;;5.16;62.26;100918.03;5009025;28;20061;-83
2021/12/01 04:42:32;;;;;;;3.93;2.70;;;;;;;5.34;62.65;100964.31;5009246;28;20141;-82
2021/12/01 04:44:59;;;;;;;4.60;2.70;;;;;;;4.95;63.02;100911.44;5009725;28;20510;-81
2021/12/01 04:47:29;;;;;;;4.90;2.70;;;;;;;5.19;63.03;100970.47;5008801;28;20600;-82
2021/12/01 04:49:57;;;;;;;3.22;2.45;;;;;;;5.28;62.04;100937.50;5009686;28;20141;-81
2021/12/01 04:52:24;;;;;;;4.77;2.60;;;;;;;5.35;62.83;100944.91;5008629;28;20058;-82
2021/12/01 04:54:50;;;;;;;6.07;2.90;;;;;;;5.49;63.36;100974.84;5009118;28;20141;-81
2021/12/01 04:57:18;;;;;;;6.70;2.67;;;;;;;4.98;61.96;100875.28;5008653;28;20077;-81
2021/12/01 04:59:45;;;;;;;4.95;3.10;;;;;;;5.31;63.07;100959.19;5008742;28;20152;-82
2021/12/01 05:02:12;;;;;;;4.20;2.90;;;;;;;5.43;62.85;100978.66;5008343;28;20062;-81
2021/12/01 05:04:41;;;;;;;3.30;2.47;;;;;;;5.30;63.75;100967.22;5008044;28;20056;-81
2021/12/01 05:07:13;;;;;;;8.63;3.22;;;;;;;4.83;63.18;100870.94;5008264;28;20046;-81
2021/12/01 05:09:40;;;;;;;3.80;2.92;;;;;;;5.41;63.95;100961.28;5009647;28;20153;-83
2021/12/01 05:12:07;;;;;;;3.57;2.67;;;;;;;5.36;64.50;100977.34;5008630;28;20124;-82
2021/12/01 05:14:35;;;;;;;3.80;2.57;;;;;;;5.42;64.27;100965.63;5008276;28;20068;-84
2021/12/01 05:17:02;;;;;;;10.20;3.25;;;;;;;5.51;63.57;100975.56;5009525;28;20451;-82
2021/12/01 05:19:29;;;;;;;3.67;2.37;;;;;;;5.55;62.71;100950.75;5009482;28;20104;-82
2021/12/01 05:21:55;;;;;;;5.95;2.92;;;;;;;5.78;62.93;100967.75;5008095;28;20054;-84
2021/12/01 05:24:22;;;;;;;3.53;3.00;;;;;;;4.54;63.10;100801.69;5009155;28;20065;-82
2021/12/01 05:26:49;;;;;;;4.97;3.00;;;;;;;5.69;63.02;100963.91;5006161;28;20045;-81
2021/12/01 05:29:17;;;;;;;3.33;2.60;;;;;;;5.53;63.50;100963.16;5006908;28;20053;-82
2021/12/01 05:31:44;;;;;;;3.92;3.15;;;;;;;5.38;63.31;100904.38;5006660;28;20119;-82
2021/12/01 05:34:11;;;;;;;3.55;3.03;;;;;;;5.54;63.05;100938.53;5007719;28;20473;-81
2021/12/01 05:36:37;;;;;;;5.40;2.67;;;;;;;5.59;63.22;100965.41;5006943;28;20077;-83
2021/12/01 05:39:04;;;;;;;3.20;2.60;;;;;;;5.41;63.33;100922.63;5006810;28;20053;-82
2021/12/01 05:41:31;;;;;;;3.78;2.90;;;;;;;5.69;63.49;100968.31;5006393;28;20316;-81
2021/12/01 05:43:58;;;;;;;9.02;3.88;;;;;;;5.67;63.90;100963.13;5007079;28;20120;-82
2021/12/01 05:46:32;;;;;;;3.45;2.90;;;;;;;5.55;64.25;100943.69;5006843;28;20131;-81
2021/12/01 05:48:58;;;;;;;5.85;3.35;;;;;;;5.53;64.73;100957.88;5006789;28;20591;-80
2021/12/01 05:51:25;;;;;;;4.72;3.35;;;;;;;5.61;65.43;100975.84;5006555;28;20141;-81
2021/12/01 05:53:52;;;;;;;3.33;2.90;;;;;;;5.31;65.62;100948.66;5006722;28;20515;-80
2021/12/01 05:56:18;;;;;;;5.38;3.78;;;;;;;5.34;66.36;100953.78;5006445;28;20443;-82
2021/12/01 05:58:45;;;;;;;6.18;3.10;;;;;;;5.34;66.73;100943.25;5007039;28;20081;-82
2021/12/01 06:01:12;;;;;;;5.43;4.13;;;;;;;5.47;66.51;100969.66;5006271;28;20054;-82
2021/12/01 06:03:40;;;;;;;8.00;3.25;;;;;;;5.24;67.21;100938.63;5007727;28;20061;-81
2021/12/01 06:06:06;;;;;;;7.10;3.93;;;;;;;5.32;67.57;100971.44;5007887;28;20083;-81
2021/12/01 06:08:33;;;;;;;8.43;3.97;;;;;;;4.98;67.31;100909.50;5006618;28;20046;-80
2021/12/01 06:11:00;;;;;;;10.73;5.18;;;;;;;5.20;67.95;100945.88;5006194;28;20156;-81
2021/12/01 06:13:26;;;;;;;11.02;5.70;;;;;;;5.15;67.67;100932.16;5006379;28;20141;-80
2021/12/01 06:15:54;;;;;;;8.40;4.43;;;;;;;5.32;67.81;100960.91;5006233;28;20156;-81
2021/12/01 06:18:20;;;;;;;4.30;3.87;;;;;;;4.74;68.46;100872.34;5007326;28;20180;-81
2021/12/01 06:20:47;;;;;;;6.30;4.30;;;;;;;5.05;68.83;100950.28;5005960;28;20050;-82
2021/12/01 06:23:14;;;;;;;6.75;4.30;;;;;;;4.97;69.20;100938.50;5006013;28;20045;-82
2021/12/01 06:25:41;;;;;;;4.57;3.40;;;;;;;4.84;69.36;100918.19;5006185;28;20049;-81
2021/12/01 06:28:09;;;;;;;16.97;4.27;;;;;;;5.15;68.50;100958.47;5006589;28;20477;-83
2021/12/01 06:30:37;;;;;;;8.90;3.83;;;;;;;5.11;69.24;100955.16;5006805;28;20116;-81
2021/12/01 06:33:04;;;;;;;11.83;4.10;;;;;;;5.14;69.12;100956.75;5015017;28;20133;-83
2021/12/01 06:35:31;;;;;;;4.85;3.40;;;;;;;5.01;69.24;100932.13;5012281;28;20080;-81
2021/12/01 06:37:58;;;;;;;5.72;4.00;;;;;;;4.65;69.47;100872.91;5009874;28;20472;-82
2021/12/01 06:40:25;;;;;;;8.07;3.77;;;;;;;5.22;69.23;100965.06;5007992;28;20129;-82
2021/12/01 06:42:53;;;;;;;8.17;4.60;;;;;;;4.70;68.83;100869.03;5008495;28;20092;-83
2021/12/01 06:45:19;;;;;;;8.23;4.00;;;;;;;4.65;69.47;100876.38;5006586;28;20145;-82
2021/12/01 06:47:46;;;;;;;6.57;4.40;;;;;;;5.16;69.17;100957.50;5006528;28;20045;-84
2021/12/01 06:50:14;;;;;;;6.17;4.50;;;;;;;5.22;69.56;100967.69;5007172;28;20667;-82
2021/12/01 06:52:41;;;;;;;8.27;3.67;;;;;;;5.13;69.77;100941.91;5007083;28;20131;-81
2021/12/01 06:55:09;;;;;;;6.87;4.03;;;;;;;5.24;69.93;100964.94;5005619;28;20050;-83
2021/12/01 06:57:36;;;;;;;6.57;3.95;;;;;;;5.23;69.79;100963.25;5005906;28;20057;-82
2021/12/01 07:00:06;;;;;;;7.50;4.78;;;;;;;4.56;69.78;100860.28;5005598;28;20054;-80
2021/12/01 07:02:33;;;;;;;5.23;4.40;;;;;;;5.29;69.83;100976.91;5005771;28;20467;-81
2021/12/01 07:05:00;;;;;;;12.13;6.70;;;;;;;5.01;69.28;100924.25;5006822;28;20054;-81
2021/12/01 07:07:26;;;;;;;8.70;4.82;;;;;;;5.37;69.56;100984.34;5006197;28;20119;-81
2021/12/01 07:09:54;;;;;;;10.88;5.00;;;;;;;5.48;68.58;100987.13;5006231;28;20058;-80
2021/12/01 07:12:22;;;;;;;9.70;6.97;;;;;;;5.57;68.58;100980.47;5006031;28;20073;-81
2021/12/01 07:14:50;;;;;;;8.40;5.53;;;;;;;5.46;67.94;100948.66;5005665;28;20050;-80
2021/12/01 07:17:16;;;;;;;7.03;4.00;;;;;;;5.40;67.77;100941.16;5007114;28;20046;-81
2021/12/01 07:19:43;;;;;;;7.73;3.93;;;;;;;5.55;67.68;100953.38;5006814;28;20141;-80
2021/12/01 07:22:10;;;;;;;5.95;3.33;;;;;;;5.51;67.16;100938.69;5004917;28;20139;-81
2021/12/01 07:24:37;;;;;;;5.72;3.80;;;;;;;5.68;66.60;100970.13;5004299;28;20060;-81
2021/12/01 07:27:04;;;;;;;5.93;3.42;;;;;;;5.67;67.10;100976.31;4989115;28;20046;-83
2021/12/01 07:29:31;;;;;;;5.28;4.03;;;;;;;5.55;67.08;100956.84;5006116;28;20145;-80
2021/12/01 07:31:58;;;;;;;7.10;3.92;;;;;;;5.68;66.60;100962.22;5022201;28;20144;-83
2021/12/01 07:34:24;;;;;;;5.57;3.40;;;;;;;5.65;66.42;100930.78;5006853;28;20078;-81
2021/12/01 07:36:51;;;;;;;6.20;3.30;;;;;;;5.76;65.94;100933.59;5008465;28;20064;-82
2021/12/01 07:39:20;;;;;;;5.35;3.35;;;;;;;5.58;64.71;100913.66;5007393;28;20061;-81
2021/12/01 07:41:47;;;;;;;6.93;3.70;;;;;;;5.67;65.00;100922.78;5005905;28;20057;-80
2021/12/01 07:44:15;;;;;;;4.07;3.58;;;;;;;6.00;64.70;100956.72;5021963;28;20128;-82
2021/12/01 07:46:42;;;;;;;4.68;3.70;;;;;;;6.02;64.99;100960.13;5007176;28;20283;-83
2021/12/01 07:49:09;;;;;;;7.88;3.72;;;;;;;5.88;65.03;100931.97;5010106;28;20088;-81
2021/12/01 07:51:36;;;;;;;7.53;3.50;;;;;;;6.22;64.39;100956.19;5009728;28;20062;-82
2021/12/01 07:54:04;;;;;;;4.80;3.35;;;;;;;6.32;63.84;100957.28;5009999;28;20189;-83
2021/12/01 07:56:32;;;;;;;8.43;3.40;;;;;;;6.12;63.27;100918.19;5011212;28;20105;-82
2021/12/01 07:58:59;;;;;;;7.63;3.63;;;;;;;6.59;64.02;100945.84;5009596;28;20391;-81
2021/12/01 08:01:25;;;;;;;10.40;4.13;;;;;;;6.45;61.93;100914.25;5009508;28;20566;-83
2021/12/01 08:03:52;;;;;;;4.95;3.35;;;;;;;6.17;60.15;100848.41;5011418;28;20053;-82
2021/12/01 08:06:19;;;;;;;6.85;4.05;;;;;;;6.97;60.71;100948.53;5010253;28;20060;-82
2021/12/01 08:08:46;;;;;;;9.20;3.30;;;;;;;7.14;61.51;100935.97;5010093;28;20570;-82
2021/12/01 08:11:13;;;;;;;4.13;3.28;;;;;;;7.47;59.23;100941.53;5010782;28;20115;-83
2021/12/01 08:13:40;;;;;;;6.55;3.53;;;;;;;7.80;58.04;100952.47;5010188;28;20085;-82
2021/12/01 08:16:10;;;;;;;4.88;3.30;;;;;;;7.49;58.74;100856.88;5010194;28;20675;-82
2021/12/01 08:18:37;;;;;;;6.95;3.50;;;;;;;8.51;58.55;100942.88;4993380;28;20508;-81
2021/12/01 08:21:03;;;;;;;5.30;3.40;;;;;;;8.49;56.00;100950.94;5010233;28;20459;-81
2021/12/01 08:23:30;;;;;;;5.60;3.33;;;;;;;8.51;56.58;100941.06;5010891;28;20112;-85
2021/12/01 08:25:59;;;;;;;3.88;3.20;;;;;;;8.33;55.56;100923.91;5009977;28;20080;-84
2021/12/01 08:28:29;;;;;;;6.85;3.38;;;;;;;8.18;56.91;100867.72;5010461;28;20056;-84
2021/12/01 08:30:55;;;;;;;11.60;3.65;;;;;;;8.71;55.57;100934.31;5010369;28;20054;-84
2021/12/01 08:33:22;;;;;;;9.02;4.30;;;;;;;7.95;54.95;100819.16;5010037;28;20151;-84
2021/12/01 08:35:49;;;;;;;7.22;3.95;;;;;;;8.58;55.03;100938.81;5011323;28;20053;-84
2021/12/01 08:38:16;;;;;;;3.92;3.53;;;;;;;8.31;54.68;100902.84;5026762;28;20069;-85
2021/12/01 08:40:43;;;;;;;16.98;4.20;;;;;;;8.39;56.02;100946.41;5010988;28;20061;-86
2021/12/01 08:43:09;;;;;;;10.25;4.68;;;;;;;8.22;55.51;100922.03;5010282;28;20308;-84
2021/12/01 08:45:36;;;;;;;4.65;3.78;;;;;;;8.34;57.14;100947.59;5027114;28;20113;-85
2021/12/01 08:48:04;;;;;;;6.30;3.85;;;;;;;8.05;56.19;100893.38;5027922;28;20262;-85
2021/12/01 08:50:32;;;;;;;5.40;4.05;;;;;;;7.92;55.89;100857.25;5012521;28;20523;-85
2021/12/01 08:52:59;;;;;;;4.60;3.55;;;;;;;8.22;55.92;100879.72;5013958;28;20103;-82
2021/12/01 08:55:26;;;;;;;14.10;4.40;;;;;;;8.42;55.73;100895.94;5011088;28;20077;-85
2021/12/01 08:58:10;;;;;;;10.07;3.88;;;;;;;8.66;55.37;100944.38;5011700;28;20061;-84
2021/12/01 09:00:44;;;;;;;7.93;4.57;;;;;;;7.92;56.04;100820.25;5014076;28;20053;-84
2021/12/01 09:03:13;;;;;;;8.60;4.63;;;;;;;7.96;56.03;100835.88;5013311;28;20098;-84
2021/12/01 09:05:45;;;;;;;14.93;4.20;;;;;;;7.87;56.60;100827.69;5010877;28;20089;-85
2021/12/01 09:08:13;;;;;;;15.75;4.90;;;;;;;8.56;56.85;100932.78;5009029;28;20072;-83
2021/12/01 09:10:41;;;;;;;6.57;4.20;;;;;;;7.40;56.63;100757.19;5008675;28;20360;-84
2021/12/01 09:13:08;;;;;;;9.65;5.57;;;;;;;8.48;57.08;100938.66;5010163;28;20528;-84
2021/12/01 09:15:35;;;;;;;6.78;5.10;;;;;;;8.22;56.98;100916.75;5009109;28;20084;-84
2021/12/01 09:18:02;;;;;;;6.15;4.70;;;;;;;8.27;57.94;100941.06;5008581;28;20053;-85
2021/12/01 09:20:29;;;;;;;9.05;5.50;;;;;;;8.31;57.66;100947.81;5009821;28;20147;-84
2021/12/01 09:22:57;;;;;;;9.43;5.50;;;;;;;8.22;58.01;100943.22;5008604;28;20050;-86
2021/12/01 09:25:24;;;;;;;9.60;6.03;;;;;;;7.56;58.14;100817.66;5007967;28;20129;-84
2021/12/01 09:28:14;;;;;;;9.82;6.40;;;;;;;8.22;58.44;100931.78;5010101;28;20054;-84
2021/12/01 09:30:41;;;;;;;11.07;6.35;;;;;;;7.44;58.11;100820.25;5009494;28;20488;-84
2021/12/01 09:33:08;;;;;;;12.23;5.47;;;;;;;8.03;59.13;100916.44;5008314;28;20057;-83
2021/12/01 09:35:35;;;;;;;8.00;5.20;;;;;;;8.11;58.80;100929.94;5009443;28;20128;-85
2021/12/01 09:38:03;;;;;;;7.80;5.45;;;;;;;8.15;59.39;100936.69;5009994;28;20050;-84
2021/12/01 09:40:32;;;;;;;10.55;5.38;;;;;;;6.49;58.90;100638.81;5010709;28;20469;-85
2021/12/01 09:43:00;;;;;;;6.28;5.63;;;;;;;7.38;59.00;100778.44;5013051;28;20143;-85
2021/12/01 09:45:27;;;;;;;8.18;6.22;;;;;;;8.17;58.23;100895.09;5010482;28;20411;-82
2021/12/01 09:47:54;;;;;;;8.43;6.03;;;;;;;8.10;58.61;100885.94;5008637;28;20054;-84
2021/12/01 09:50:22;;;;;;;6.57;5.63;;;;;;;6.66;59.16;100650.81;5010243;28;20054;-85
2021/12/01 09:52:50;;;;;;;8.93;5.47;;;;;;;8.33;59.13;100929.19;5015997;28;20050;-84
2021/12/01 09:55:18;;;;;;;6.60;6.00;;;;;;;7.33;59.39;100750.66;5010988;28;20046;-85
2021/12/01 09:58:10;;;;;;;7.57;5.47;;;;;;;8.10;59.32;100875.34;5008007;28;20076;-84
2021/12/01 10:00:43;;;;;;;7.63;5.47;;;;;;;8.32;58.44;100906.34;5007953;28;20144;-83
2021/12/01 10:03:11;;;;;;;12.07;5.45;;;;;;;7.79;59.04;100798.34;5007831;28;20057;-85
2021/12/01 10:06:09;;;;;;;7.50;5.60;;;;;;;7.97;59.10;100816.44;5007801;28;20054;-83
2021/12/01 10:08:38;;;;;;;8.52;5.35;;;;;;;8.46;59.29;100892.13;5007442;28;20080;-83
2021/12/01 10:11:07;;;;;;;12.07;6.00;;;;;;;8.47;58.64;100893.78;5006973;28;20056;-85
2021/12/01 10:13:39;;;;;;;8.00;5.55;;;;;;;8.41;59.12;100881.03;5008055;28;20344;-85
2021/12/01 10:16:08;;;;;;;7.90;6.22;;;;;;;8.22;59.20;100853.28;5007175;28;20057;-84
2021/12/01 10:18:42;;;;;;;6.75;5.45;;;;;;;8.51;59.65;100884.66;5006956;28;20255;-83
2021/12/01 10:21:16;;;;;;;11.27;5.63;;;;;;;8.51;59.38;100869.63;5006747;28;20127;-84
2021/12/01 10:23:52;;;;;;;9.02;5.35;;;;;;;8.78;59.21;100871.13;5008625;28;20157;-84
2021/12/01 10:26:21;;;;;;;6.15;5.13;;;;;;;8.77;59.58;100846.47;5006873;28;20062;-84
2021/12/01 10:29:12;;;;;;;11.52;6.05;;;;;;;8.91;59.55;100865.75;5006988;28;20061;-83
2021/12/01 10:31:42;;;;;;;9.88;5.60;;;;;;;8.94;59.26;100858.41;5005340;28;20438;-84
2021/12/01 10:34:13;;;;;;;5.50;5.00;;;;;;;9.16;58.82;100843.47;5004929;28;20057;-83
2021/12/01 10:36:40;;;;;;;8.70;5.40;;;;;;;8.86;58.03;100785.81;5004559;28;20312;-83
2021/12/01 10:39:06;;;;;;;8.23;6.07;;;;;;;9.07;57.40;100817.72;5004757;28;20049;-85
2021/12/01 10:41:36;;;;;;;9.27;5.45;;;;;;;8.97;58.34;100815.78;5005596;28;20137;-84
2021/12/01 10:44:18;;;;;;;7.35;5.90;;;;;;;8.35;58.51;100711.22;5007615;28;20053;-84
2021/12/01 10:46:51;;;;;;;7.70;5.78;;;;;;;8.45;58.46;100702.59;5007445;28;20174;-84
2021/12/01 10:49:33;;;;;;;8.10;6.10;;;;;;;9.40;58.34;100796.47;5007406;28;20057;-84
2021/12/01 10:52:02;;;;;;;7.65;5.93;;;;;;;8.52;57.66;100611.19;5023333;28;20054;-82
2021/12/01 10:54:29;;;;;;;8.43;5.65;;;;;;;9.95;56.48;100793.75;5008049;28;20420;-84
2021/12/01 10:57:22;;;;;;;6.45;5.82;;;;;;;10.18;56.76;100801.59;5006750;28;20129;-84
2021/12/01 10:59:51;;;;;;;6.45;5.85;;;;;;;10.19;56.63;100766.13;5006946;28;20057;-85
2021/12/01 11:02:19;;;;;;;7.07;5.82;;;;;;;10.28;56.24;100762.72;5005406;28;20089;-85
2021/12/01 11:04:51;;;;;;;7.35;5.28;;;;;;;10.30;56.17;100776.72;5006194;28;20050;-85
2021/12/01 11:07:29;;;;;;;5.68;4.95;;;;;;;10.19;56.86;100788.19;5008363;28;20069;-85
2021/12/01 11:10:26;;;;;;;5.57;5.07;;;;;;;10.21;56.72;100780.09;5007188;28;20128;-84
2021/12/01 11:12:59;;;;;;;7.85;5.75;;;;;;;10.15;57.20;100770.03;5006153;28;20057;-84
2021/12/01 11:15:36;;;;;;;9.48;5.55;;;;;;;9.59;57.26;100689.81;5006640;28;20050;-84
2021/12/01 11:18:31;;;;;;;8.50;5.65;;;;;;;9.65;57.89;100698.22;5006288;28;20468;-84
2021/12/01 11:21:12;;;;;;;7.22;4.97;;;;;;;9.72;58.20;100734.66;5006828;28;20121;-85
2021/12/01 11:23:45;;;;;;;6.85;5.78;;;;;;;9.82;58.54;100753.31;5009604;28;20058;-85
2021/12/01 11:26:26;;;;;;;6.50;5.28;;;;;;;9.35;58.97;100665.34;5009646;28;20096;-85
2021/12/01 11:28:58;;;;;;;8.00;5.70;;;;;;;9.73;59.62;100740.81;5011568;28;20050;-84
2021/12/01 11:31:29;;;;;;;6.28;5.68;;;;;;;9.68;59.86;100743.00;5011199;28;20085;-85
2021/12/01 11:34:04;;;;;;;6.32;5.70;;;;;;;9.45;59.59;100694.56;5010617;28;20538;-83
2021/12/01 11:36:43;;;;;;;7.95;5.82;;;;;;;9.23;59.50;100648.66;5008958;28;20129;-83
2021/12/01 11:39:13;;;;;;;6.88;5.85;;;;;;;9.84;58.89;100723.03;5009711;28;20136;-84
2021/12/01 11:41:43;;;;;;;8.60;5.97;;;;;;;9.83;59.23;100712.59;5010942;28;20145;-84
2021/12/01 11:44:12;;;;;;;7.00;5.72;;;;;;;9.60;59.63;100670.25;5009491;28;20053;-85